Iuka, Illinois
Current Conditions -  °F | °C
As of 4:15 AM on Sunday 25 Jan 2015 (Local Time) from KSLO Reporting Station
Overcast Overcast  
Wind Chill: 42°   Ceiling: 6000
Heat Index: 47°   Visibility: 10mi
Dew Point: 34°   Wind: 10mph
Humidity: 61%   Direction: 220°SW
Pressure: 29.65"   Gusts: NA
Location:  38.62°N, 88.79°W
Report Text: KSLO 251015Z AUTO 22009KT 10SM SCT047 BKN060 OVC080 08/01 A2965 RMK AO2 T00820010
Loading
Personal Weather Stations






























Interactive Weather Map New forecast layout! Learn more

10-Day Weather Forecast

Advertisements
Track Severe Weather on mobile